createdAt,value
2018-09-16T00:01:00.622Z,17.19
2018-09-16T00:02:04.826Z,17.18
2018-09-16T00:03:09.072Z,17.17
2018-09-16T00:04:13.422Z,17.18
2018-09-16T00:05:17.652Z,17.16
2018-09-16T00:06:21.809Z,17.15
2018-09-16T00:07:26.262Z,17.14
2018-09-16T00:08:30.502Z,17.13
2018-09-16T00:09:34.674Z,17.12
2018-09-16T00:10:38.830Z,17.11
2018-09-16T00:11:43.011Z,17.11
2018-09-16T00:12:47.187Z,17.10
2018-09-16T00:13:51.345Z,17.08
2018-09-16T00:14:55.535Z,17.08
2018-09-16T00:15:59.697Z,17.07
2018-09-16T00:17:03.879Z,17.07
2018-09-16T00:18:08.095Z,17.05
2018-09-16T00:19:12.275Z,17.04
2018-09-16T00:20:16.637Z,17.03
2018-09-16T00:21:20.825Z,17.02
2018-09-16T00:22:25.167Z,17.01
2018-09-16T00:23:29.498Z,17.01
2018-09-16T00:24:33.703Z,17.00
2018-09-16T00:25:37.871Z,16.99
2018-09-16T00:26:42.278Z,16.98
2018-09-16T00:27:46.474Z,16.98
2018-09-16T00:28:50.678Z,16.96
2018-09-16T00:29:54.846Z,16.96
2018-09-16T00:30:59.091Z,16.96
2018-09-16T00:32:08.368Z,16.94
2018-09-16T00:33:13.533Z,16.94
2018-09-16T00:34:17.667Z,16.93
2018-09-16T00:35:21.944Z,16.92
2018-09-16T00:36:26.295Z,16.91
2018-09-16T00:37:30.456Z,16.90
2018-09-16T00:38:34.786Z,16.90
2018-09-16T00:39:38.946Z,16.89
2018-09-16T00:40:43.204Z,16.89
2018-09-16T00:41:47.431Z,16.89
2018-09-16T00:42:51.688Z,16.88
2018-09-16T00:43:55.846Z,16.87
2018-09-16T00:45:00.046Z,16.87
2018-09-16T00:46:04.347Z,16.87
2018-09-16T00:47:08.547Z,16.86
2018-09-16T00:48:12.714Z,16.85
2018-09-16T00:49:16.853Z,16.84
2018-09-16T00:50:21.022Z,16.84
2018-09-16T00:51:25.226Z,16.83
2018-09-16T00:52:29.378Z,16.83
2018-09-16T00:53:33.507Z,16.82
2018-09-16T00:54:37.658Z,16.82
2018-09-16T00:55:41.905Z,16.80
2018-09-16T00:56:46.048Z,16.79
2018-09-16T00:57:50.252Z,16.78
2018-09-16T00:58:54.439Z,16.77
2018-09-16T00:59:58.691Z,16.77
2018-09-16T01:01:02.871Z,16.77
2018-09-16T01:02:07.003Z,16.77
2018-09-16T01:03:11.223Z,16.75
2018-09-16T01:04:15.382Z,16.74
2018-09-16T01:05:19.519Z,16.74
2018-09-16T01:06:28.918Z,16.73
2018-09-16T01:07:33.062Z,16.72
2018-09-16T01:08:37.282Z,16.72
2018-09-16T01:09:41.430Z,16.71
2018-09-16T01:10:45.629Z,16.70
2018-09-16T01:11:49.833Z,16.69
2018-09-16T01:12:54.061Z,16.68
2018-09-16T01:13:58.359Z,16.67
2018-09-16T01:15:02.478Z,16.65
2018-09-16T01:16:06.864Z,16.66
2018-09-16T01:17:11.270Z,16.65
2018-09-16T01:18:15.616Z,16.63
2018-09-16T01:19:19.986Z,16.64
2018-09-16T01:20:24.131Z,16.62
2018-09-16T01:21:28.380Z,16.61
2018-09-16T01:22:32.704Z,16.60
2018-09-16T01:23:36.947Z,16.60
2018-09-16T01:24:41.146Z,16.59
2018-09-16T01:25:45.318Z,16.60
2018-09-16T01:26:49.424Z,16.58
2018-09-16T01:27:53.966Z,16.58
2018-09-16T01:28:58.135Z,16.58
2018-09-16T01:30:02.442Z,16.57
2018-09-16T01:31:06.610Z,16.56
2018-09-16T01:32:10.868Z,16.55
2018-09-16T01:33:15.041Z,16.54
2018-09-16T01:34:19.203Z,16.53
2018-09-16T01:35:23.384Z,16.53
2018-09-16T01:36:27.932Z,16.53
2018-09-16T01:37:37.348Z,16.52
2018-09-16T01:38:46.878Z,16.52
2018-09-16T01:39:51.025Z,16.50
2018-09-16T01:40:55.644Z,16.49
2018-09-16T01:41:59.810Z,16.49
2018-09-16T01:43:04.009Z,16.49
2018-09-16T01:44:08.193Z,16.49
2018-09-16T01:45:12.389Z,16.48
2018-09-16T01:46:16.598Z,16.47
2018-09-16T01:47:20.778Z,16.47
2018-09-16T01:48:24.922Z,16.46
2018-09-16T01:49:29.096Z,16.46
2018-09-16T01:50:33.301Z,16.45
2018-09-16T01:51:37.454Z,16.44
2018-09-16T01:52:41.711Z,16.44
2018-09-16T01:53:45.914Z,16.44
2018-09-16T01:54:50.122Z,16.43
2018-09-16T01:55:54.266Z,16.43
2018-09-16T01:56:58.491Z,16.43
2018-09-16T01:58:02.720Z,16.41
2018-09-16T01:59:07.479Z,16.40
2018-09-16T02:00:11.718Z,16.39
2018-09-16T02:01:16.001Z,16.39
2018-09-16T02:02:20.285Z,16.39
2018-09-16T02:03:24.456Z,16.38
2018-09-16T02:04:28.872Z,16.37
2018-09-16T02:05:38.222Z,16.36
2018-09-16T02:06:42.417Z,16.34
2018-09-16T02:07:46.728Z,16.32
2018-09-16T02:08:50.873Z,16.31
2018-09-16T02:09:55.138Z,16.30
2018-09-16T02:10:59.766Z,16.30
2018-09-16T02:12:03.974Z,16.28
2018-09-16T02:13:08.265Z,16.27
2018-09-16T02:14:12.471Z,16.27
2018-09-16T02:15:17.061Z,16.26
2018-09-16T02:16:21.241Z,16.25
2018-09-16T02:17:25.411Z,16.25
2018-09-16T02:18:29.643Z,16.24
2018-09-16T02:19:33.831Z,16.24
2018-09-16T02:20:38.027Z,16.25
2018-09-16T02:21:42.202Z,16.24
2018-09-16T02:22:46.418Z,16.23
2018-09-16T02:23:50.775Z,16.24
2018-09-16T02:24:54.919Z,16.23
2018-09-16T02:25:59.138Z,16.21
2018-09-16T02:27:03.290Z,16.22
2018-09-16T02:28:07.452Z,16.21
2018-09-16T02:29:11.686Z,16.20
2018-09-16T02:30:15.875Z,16.20
2018-09-16T02:31:20.068Z,16.19
2018-09-16T02:32:24.222Z,16.19
2018-09-16T02:33:28.407Z,16.18
2018-09-16T02:34:32.718Z,16.16
2018-09-16T02:35:36.879Z,16.16
2018-09-16T02:36:41.455Z,16.15
2018-09-16T02:37:45.651Z,16.14
2018-09-16T02:38:49.819Z,16.15
2018-09-16T02:39:54.095Z,16.14
2018-09-16T02:40:58.266Z,16.13
2018-09-16T02:42:02.416Z,16.12
2018-09-16T02:43:06.561Z,16.10
2018-09-16T02:44:10.725Z,16.09
2018-09-16T02:45:15.091Z,16.08
2018-09-16T02:46:19.343Z,16.07
2018-09-16T02:47:23.746Z,16.07
2018-09-16T02:48:27.955Z,16.05
2018-09-16T02:49:32.110Z,16.04
2018-09-16T02:50:36.329Z,16.04
2018-09-16T02:51:40.715Z,16.03
2018-09-16T02:52:45.036Z,16.03
2018-09-16T02:53:49.289Z,16.03
2018-09-16T02:54:53.461Z,16.02
2018-09-16T02:55:57.697Z,16.01
2018-09-16T02:57:02.212Z,15.99
2018-09-16T02:58:06.334Z,15.99
2018-09-16T02:59:10.482Z,15.98
2018-09-16T03:00:14.833Z,15.97
2018-09-16T03:01:19.162Z,15.97
2018-09-16T03:02:23.337Z,15.97
2018-09-16T03:03:27.501Z,15.96
2018-09-16T03:04:31.749Z,15.94
2018-09-16T03:05:51.239Z,15.95
2018-09-16T03:06:55.471Z,15.92
2018-09-16T03:07:59.622Z,15.91
2018-09-16T03:09:05.250Z,15.90
2018-09-16T03:10:09.466Z,15.86
2018-09-16T03:11:13.631Z,15.86
2018-09-16T03:12:17.827Z,15.85
2018-09-16T03:13:22.085Z,15.85
2018-09-16T03:14:26.335Z,15.84
2018-09-16T03:15:30.499Z,15.83
2018-09-16T03:16:34.670Z,15.82
2018-09-16T03:17:38.899Z,15.82
2018-09-16T03:18:43.134Z,15.81
2018-09-16T03:19:47.254Z,15.81
2018-09-16T03:20:51.427Z,15.81
2018-09-16T03:21:55.643Z,15.82
2018-09-16T03:22:59.928Z,15.80
2018-09-16T03:24:04.306Z,15.80
2018-09-16T03:25:08.479Z,15.79
2018-09-16T03:26:12.782Z,15.80
2018-09-16T03:27:16.969Z,15.78
2018-09-16T03:28:21.158Z,15.77
2018-09-16T03:29:25.287Z,15.77
2018-09-16T03:30:29.607Z,15.77
2018-09-16T03:31:33.777Z,15.76
2018-09-16T03:32:38.082Z,15.74
2018-09-16T03:33:42.393Z,15.74
2018-09-16T03:34:46.563Z,15.72
2018-09-16T03:35:50.754Z,15.72
2018-09-16T03:36:55.136Z,15.71
2018-09-16T03:37:59.418Z,15.72
2018-09-16T03:39:04.003Z,15.72
2018-09-16T03:40:08.205Z,15.72
2018-09-16T03:41:12.418Z,15.71
2018-09-16T03:42:16.543Z,15.70
2018-09-16T03:43:20.724Z,15.69
2018-09-16T03:44:24.988Z,15.68
2018-09-16T03:45:29.138Z,15.67
2018-09-16T03:46:33.282Z,15.66
2018-09-16T03:47:37.670Z,15.67
2018-09-16T03:48:41.807Z,15.65
2018-09-16T03:49:46.230Z,15.66
2018-09-16T03:50:50.434Z,15.66
2018-09-16T03:51:54.555Z,15.65
2018-09-16T03:52:58.739Z,15.64
2018-09-16T03:54:02.914Z,15.64
2018-09-16T03:55:07.175Z,15.64
2018-09-16T03:56:11.358Z,15.64
2018-09-16T03:57:15.790Z,15.63
2018-09-16T03:58:19.959Z,15.63
2018-09-16T03:59:24.277Z,15.61
2018-09-16T04:00:28.573Z,15.60
2018-09-16T04:01:33.060Z,15.61
2018-09-16T04:02:37.360Z,15.60
2018-09-16T04:03:41.627Z,15.59
2018-09-16T04:04:45.774Z,15.59
2018-09-16T04:05:50.181Z,15.59
2018-09-16T04:06:54.384Z,15.58
2018-09-16T04:07:58.614Z,15.57
2018-09-16T04:09:02.872Z,15.55
2018-09-16T04:10:07.065Z,15.55
2018-09-16T04:11:11.516Z,15.55
2018-09-16T04:12:16.026Z,15.54
2018-09-16T04:13:20.346Z,15.53
2018-09-16T04:14:24.674Z,15.52
2018-09-16T04:15:28.949Z,15.53
2018-09-16T04:16:33.167Z,15.52
2018-09-16T04:17:37.358Z,15.51
2018-09-16T04:18:41.686Z,15.50
2018-09-16T04:19:46.013Z,15.50
2018-09-16T04:20:50.194Z,15.49
2018-09-16T04:21:54.424Z,15.49
2018-09-16T04:22:58.638Z,15.48
2018-09-16T04:24:02.798Z,15.48
2018-09-16T04:25:07.338Z,15.47
2018-09-16T04:26:11.494Z,15.47
2018-09-16T04:27:15.780Z,15.46
2018-09-16T04:28:20.015Z,15.46
2018-09-16T04:29:24.229Z,15.46
2018-09-16T04:30:28.379Z,15.45
2018-09-16T04:31:32.634Z,15.44
2018-09-16T04:32:37.319Z,15.45
2018-09-16T04:33:41.472Z,15.45
2018-09-16T04:34:45.665Z,15.45
2018-09-16T04:35:49.911Z,15.44
2018-09-16T04:36:54.092Z,15.45
2018-09-16T04:37:58.276Z,15.43
2018-09-16T04:39:02.453Z,15.43
2018-09-16T04:40:07.000Z,15.42
2018-09-16T04:41:11.150Z,15.41
2018-09-16T04:42:15.407Z,15.40
2018-09-16T04:43:19.597Z,15.39
2018-09-16T04:44:23.817Z,15.38
2018-09-16T04:45:27.951Z,15.37
2018-09-16T04:46:32.290Z,15.36
2018-09-16T04:47:36.418Z,15.37
2018-09-16T04:48:40.611Z,15.35
2018-09-16T04:49:45.060Z,15.35
2018-09-16T04:50:49.308Z,15.33
2018-09-16T04:51:53.458Z,15.32
2018-09-16T04:52:57.673Z,15.33
2018-09-16T04:54:01.847Z,15.33
2018-09-16T04:55:06.150Z,15.32
2018-09-16T04:56:10.483Z,15.32
2018-09-16T04:57:14.720Z,15.30
2018-09-16T04:58:18.897Z,15.29
2018-09-16T04:59:23.100Z,15.28
2018-09-16T05:00:27.251Z,15.28
2018-09-16T05:01:31.588Z,15.28
2018-09-16T05:02:35.820Z,15.27
2018-09-16T05:03:39.977Z,15.27
2018-09-16T05:04:44.229Z,15.27
2018-09-16T05:05:48.371Z,15.26
2018-09-16T05:06:53.078Z,15.25
2018-09-16T05:07:57.382Z,15.25
2018-09-16T05:09:01.681Z,15.23
2018-09-16T05:10:06.026Z,15.23
2018-09-16T05:11:10.172Z,15.23
2018-09-16T05:12:14.323Z,15.23
2018-09-16T05:13:18.494Z,15.22
2018-09-16T05:14:22.679Z,15.22
2018-09-16T05:15:26.950Z,15.23
2018-09-16T05:16:31.159Z,15.23
2018-09-16T05:17:35.329Z,15.22
2018-09-16T05:18:39.471Z,15.21
2018-09-16T05:19:43.691Z,15.21
2018-09-16T05:20:47.925Z,15.21
2018-09-16T05:21:52.095Z,15.21
2018-09-16T05:22:56.432Z,15.21
2018-09-16T05:24:00.598Z,15.21
2018-09-16T05:25:05.095Z,15.20
2018-09-16T05:26:09.310Z,15.20
2018-09-16T05:27:13.727Z,15.18
2018-09-16T05:28:17.869Z,15.17
2018-09-16T05:29:22.011Z,15.17
2018-09-16T05:30:26.204Z,15.16
2018-09-16T05:31:30.445Z,15.16
2018-09-16T05:32:34.727Z,15.18
2018-09-16T05:33:38.893Z,15.17
2018-09-16T05:34:43.078Z,15.18
2018-09-16T05:35:47.364Z,15.19
2018-09-16T05:36:51.556Z,15.19
2018-09-16T05:37:55.967Z,15.20
2018-09-16T05:39:00.191Z,15.22
2018-09-16T05:40:04.366Z,15.22
2018-09-16T05:41:08.707Z,15.23
2018-09-16T05:42:12.890Z,15.25
2018-09-16T05:43:17.190Z,15.26
2018-09-16T05:44:21.331Z,15.28
2018-09-16T05:45:25.534Z,15.30
2018-09-16T05:46:29.694Z,15.32
2018-09-16T05:47:33.882Z,15.34
2018-09-16T05:48:38.070Z,15.35
2018-09-16T05:49:42.234Z,15.36
2018-09-16T05:50:46.386Z,15.38
2018-09-16T05:51:50.600Z,15.40
2018-09-16T05:52:54.966Z,15.41
2018-09-16T05:53:59.301Z,15.42
2018-09-16T05:55:03.453Z,15.43
2018-09-16T05:56:07.636Z,15.45
2018-09-16T05:57:11.798Z,15.48
2018-09-16T05:58:16.022Z,15.48
2018-09-16T05:59:20.229Z,15.50
2018-09-16T06:00:27.716Z,15.52
2018-09-16T06:01:32.116Z,15.54
2018-09-16T06:02:36.262Z,15.57
2018-09-16T06:03:40.529Z,15.58
2018-09-16T06:04:45.076Z,15.60
2018-09-16T06:05:49.306Z,15.62
2018-09-16T06:06:53.482Z,15.64
2018-09-16T06:07:57.681Z,15.65
2018-09-16T06:09:02.064Z,15.66
2018-09-16T06:10:06.264Z,15.67
2018-09-16T06:11:10.427Z,15.68
2018-09-16T06:12:14.597Z,15.69
2018-09-16T06:13:18.831Z,15.71
2018-09-16T06:14:22.994Z,15.73
2018-09-16T06:15:27.137Z,15.76
2018-09-16T06:16:31.419Z,15.78
2018-09-16T06:17:35.705Z,15.82
2018-09-16T06:18:39.883Z,15.83
2018-09-16T06:19:44.115Z,15.85
2018-09-16T06:20:48.331Z,15.87
2018-09-16T06:21:52.561Z,15.90
2018-09-16T06:22:56.714Z,15.92
2018-09-16T06:24:00.936Z,15.94
2018-09-16T06:25:05.285Z,15.96
2018-09-16T06:26:09.843Z,15.98
2018-09-16T06:27:14.023Z,16.00
2018-09-16T06:28:18.177Z,16.01
2018-09-16T06:29:22.516Z,16.02
2018-09-16T06:30:26.729Z,16.03
2018-09-16T06:31:30.888Z,16.02
2018-09-16T06:32:35.059Z,16.01
2018-09-16T06:33:39.210Z,16.02
2018-09-16T06:34:43.405Z,16.02
2018-09-16T06:35:47.705Z,16.02
2018-09-16T06:36:51.922Z,16.03
2018-09-16T06:37:56.403Z,16.00
2018-09-16T06:39:00.546Z,15.99
2018-09-16T06:40:04.685Z,15.99
2018-09-16T06:41:08.944Z,16.00
2018-09-16T06:42:13.092Z,16.01
2018-09-16T06:43:17.380Z,16.02
2018-09-16T06:44:21.558Z,16.03
2018-09-16T06:45:25.708Z,16.03
2018-09-16T06:46:29.922Z,16.05
2018-09-16T06:47:34.182Z,16.06
2018-09-16T06:48:38.369Z,16.07
2018-09-16T06:49:42.496Z,16.08
2018-09-16T06:50:47.029Z,16.10
2018-09-16T06:51:51.220Z,16.10
2018-09-16T06:52:55.620Z,16.10
2018-09-16T06:53:59.910Z,16.13
2018-09-16T06:55:04.217Z,16.15
2018-09-16T06:56:08.427Z,16.16
2018-09-16T06:57:12.567Z,16.19
2018-09-16T06:58:16.739Z,16.21
2018-09-16T06:59:20.939Z,16.23
2018-09-16T07:01:35.530Z,16.25
2018-09-16T07:02:39.737Z,16.26
2018-09-16T07:03:43.920Z,16.27
2018-09-16T07:04:48.111Z,16.28
2018-09-16T07:05:52.475Z,16.29
2018-09-16T07:06:56.659Z,16.31
2018-09-16T07:08:00.860Z,16.31
2018-09-16T07:09:11.591Z,16.33
2018-09-16T07:10:15.756Z,16.35
2018-09-16T07:11:19.918Z,16.35
2018-09-16T07:12:24.102Z,16.37
2018-09-16T07:13:28.295Z,16.38
2018-09-16T07:14:32.490Z,16.39
2018-09-16T07:15:36.719Z,16.40
2018-09-16T07:16:40.903Z,16.42
2018-09-16T07:17:45.067Z,16.43
2018-09-16T07:18:49.427Z,16.45
2018-09-16T07:19:53.579Z,16.45
2018-09-16T07:20:57.776Z,16.47
2018-09-16T07:22:01.906Z,16.48
2018-09-16T07:23:06.133Z,16.49
2018-09-16T07:24:10.294Z,16.51
2018-09-16T07:25:14.463Z,16.52
2018-09-16T07:26:18.782Z,16.54
2018-09-16T07:27:23.065Z,16.55
2018-09-16T07:28:27.174Z,16.57
2018-09-16T07:29:31.376Z,16.57
2018-09-16T07:30:35.527Z,16.59
2018-09-16T07:31:39.658Z,16.60
2018-09-16T07:32:43.846Z,16.63
2018-09-16T07:33:48.174Z,16.64
2018-09-16T07:34:52.343Z,16.66
2018-09-16T07:35:56.478Z,16.68
2018-09-16T07:37:00.626Z,16.69
2018-09-16T07:38:05.398Z,16.71
2018-09-16T07:39:10.414Z,16.72
2018-09-16T07:40:14.634Z,16.73
2018-09-16T07:41:19.007Z,16.74
2018-09-16T07:42:23.703Z,16.77
2018-09-16T07:43:28.370Z,16.76
2018-09-16T07:44:32.558Z,16.78
2018-09-16T07:45:36.910Z,16.80
2018-09-16T07:46:41.227Z,16.81
2018-09-16T07:47:45.910Z,16.82
2018-09-16T07:48:50.118Z,16.83
2018-09-16T07:49:54.344Z,16.84
2018-09-16T07:50:59.025Z,16.86
2018-09-16T07:52:03.446Z,16.86
2018-09-16T07:53:08.125Z,16.88
2018-09-16T07:54:12.480Z,16.89
2018-09-16T07:55:16.702Z,16.92
2018-09-16T07:56:21.190Z,16.92
2018-09-16T07:57:26.148Z,16.94
2018-09-16T07:58:30.585Z,16.96
2018-09-16T07:59:34.805Z,16.98
2018-09-16T08:00:39.171Z,16.98
2018-09-16T08:01:43.963Z,17.00
2018-09-16T08:02:48.492Z,17.01
2018-09-16T08:03:52.645Z,17.02
2018-09-16T08:04:56.843Z,17.03
2018-09-16T08:06:01.493Z,17.05
2018-09-16T08:07:06.274Z,17.08
2018-09-16T08:08:10.724Z,17.10
2018-09-16T08:09:15.246Z,17.11
2018-09-16T08:10:19.902Z,17.11
2018-09-16T08:11:24.107Z,17.13
2018-09-16T08:12:28.754Z,17.16
2018-09-16T08:13:33.367Z,17.16
2018-09-16T08:14:37.774Z,17.18
2018-09-16T08:15:42.006Z,17.19
2018-09-16T08:16:46.279Z,17.22
2018-09-16T08:17:50.563Z,17.23
2018-09-16T08:18:54.977Z,17.26
2018-09-16T08:19:59.465Z,17.27
2018-09-16T08:21:03.955Z,17.28
2018-09-16T08:22:08.359Z,17.30
2018-09-16T08:23:12.547Z,17.32
2018-09-16T08:24:23.380Z,17.34
2018-09-16T08:25:27.699Z,17.36
2018-09-16T08:26:32.401Z,17.40
2018-09-16T08:27:36.618Z,17.40
2018-09-16T08:28:40.809Z,17.42
2018-09-16T08:29:45.130Z,17.43
2018-09-16T08:30:49.831Z,17.46
2018-09-16T08:31:54.311Z,17.47
2018-09-16T08:32:58.539Z,17.49
2018-09-16T08:34:02.991Z,17.51
2018-09-16T08:35:07.298Z,17.53
2018-09-16T08:36:11.850Z,17.54
2018-09-16T08:37:15.999Z,17.56
2018-09-16T08:38:20.677Z,17.58
2018-09-16T08:39:24.868Z,17.59
2018-09-16T08:40:29.398Z,17.61
2018-09-16T08:41:33.526Z,17.65
2018-09-16T08:42:37.745Z,17.66
2018-09-16T08:43:41.958Z,17.68
2018-09-16T08:44:46.155Z,17.72
2018-09-16T08:45:50.311Z,17.74
2018-09-16T08:46:54.468Z,17.76
2018-09-16T08:47:58.668Z,17.78
2018-09-16T08:49:02.883Z,17.81
2018-09-16T08:50:07.119Z,17.81
2018-09-16T08:51:11.473Z,17.84
2018-09-16T08:52:15.667Z,17.87
2018-09-16T08:53:19.958Z,17.89
2018-09-16T08:54:24.481Z,17.91
2018-09-16T08:55:28.730Z,17.94
2018-09-16T08:56:32.943Z,17.96
2018-09-16T08:57:37.102Z,17.99
2018-09-16T08:58:41.270Z,18.03
2018-09-16T08:59:45.424Z,18.04
2018-09-16T09:00:49.963Z,18.07
2018-09-16T09:01:54.123Z,18.10
2018-09-16T09:02:58.282Z,18.12
2018-09-16T09:04:02.435Z,18.15
2018-09-16T09:05:07.330Z,18.19
2018-09-16T09:06:11.496Z,18.22
2018-09-16T09:07:15.772Z,18.26
2018-09-16T09:08:20.172Z,18.28
2018-09-16T09:09:24.304Z,18.29
2018-09-16T09:10:28.498Z,18.31
2018-09-16T09:11:32.685Z,18.33
2018-09-16T09:12:36.842Z,18.35
2018-09-16T09:13:41.368Z,18.38
2018-09-16T09:14:45.519Z,18.41
2018-09-16T09:15:49.654Z,18.42
2018-09-16T09:16:53.858Z,18.45
2018-09-16T09:17:58.027Z,18.46
2018-09-16T09:19:02.240Z,18.48
2018-09-16T09:20:06.623Z,18.49
2018-09-16T09:21:10.778Z,18.51
2018-09-16T09:22:15.034Z,18.55
2018-09-16T09:23:19.654Z,18.56
2018-09-16T09:24:23.815Z,18.58
2018-09-16T09:25:27.986Z,18.60
2018-09-16T09:26:32.266Z,18.62
2018-09-16T09:27:36.454Z,18.64
2018-09-16T09:28:40.594Z,18.66
2018-09-16T09:29:44.966Z,18.69
2018-09-16T09:30:49.098Z,18.70
2018-09-16T09:31:53.240Z,18.73
2018-09-16T09:32:57.443Z,18.73
2018-09-16T09:34:01.597Z,18.76
2018-09-16T09:35:05.906Z,18.78
2018-09-16T09:36:10.115Z,18.79
2018-09-16T09:37:14.255Z,18.81
2018-09-16T09:38:24.662Z,18.83
2018-09-16T09:39:29.298Z,18.86
2018-09-16T09:40:33.447Z,18.89
2018-09-16T09:41:37.622Z,18.90
2018-09-16T09:42:41.805Z,18.93
2018-09-16T09:43:46.098Z,18.96
2018-09-16T09:44:50.330Z,18.97
2018-09-16T09:45:54.547Z,18.99
2018-09-16T09:46:58.760Z,19.01
2018-09-16T09:48:02.956Z,19.04
2018-09-16T09:49:07.359Z,19.07
2018-09-16T09:50:11.787Z,19.09
2018-09-16T09:51:16.060Z,19.12
2018-09-16T09:52:20.200Z,19.14
2018-09-16T09:53:24.401Z,19.15
2018-09-16T09:54:28.571Z,19.18
2018-09-16T09:55:32.714Z,19.23
2018-09-16T09:56:36.858Z,19.27
2018-09-16T09:57:41.268Z,19.30
2018-09-16T09:58:45.449Z,19.33
2018-09-16T09:59:49.672Z,19.37
2018-09-16T10:00:53.823Z,19.41
2018-09-16T10:01:58.010Z,19.46
2018-09-16T10:03:02.616Z,19.51
2018-09-16T10:04:06.965Z,19.53
2018-09-16T10:05:11.179Z,19.59
2018-09-16T10:06:15.360Z,19.63
2018-09-16T10:07:26.977Z,19.67
2018-09-16T10:08:31.227Z,19.71
2018-09-16T10:09:35.347Z,19.75
2018-09-16T10:10:39.612Z,19.78
2018-09-16T10:11:43.811Z,19.82
2018-09-16T10:12:48.108Z,19.86
2018-09-16T10:13:52.318Z,19.88
2018-09-16T10:14:56.483Z,19.91
2018-09-16T10:16:00.626Z,19.96
2018-09-16T10:17:04.766Z,19.99
2018-09-16T10:18:09.090Z,20.03
2018-09-16T10:19:13.264Z,20.06
2018-09-16T10:20:17.519Z,20.09
2018-09-16T10:21:21.727Z,20.13
2018-09-16T10:22:25.875Z,20.16
2018-09-16T10:23:30.083Z,20.19
2018-09-16T10:24:34.289Z,20.19
2018-09-16T10:25:38.975Z,20.25
2018-09-16T10:26:43.211Z,20.31
2018-09-16T10:27:47.333Z,20.36
2018-09-16T10:28:51.494Z,20.42
2018-09-16T10:29:55.624Z,20.47
2018-09-16T10:30:59.793Z,20.50
2018-09-16T10:32:03.954Z,20.56
2018-09-16T10:33:08.128Z,20.60
2018-09-16T10:34:12.266Z,20.64
2018-09-16T10:35:16.635Z,20.67
2018-09-16T10:36:20.766Z,20.68
2018-09-16T10:37:25.571Z,20.71
2018-09-16T10:38:29.795Z,20.74
2018-09-16T10:39:34.362Z,20.77
2018-09-16T10:40:38.527Z,20.81
2018-09-16T10:41:42.847Z,20.87
2018-09-16T10:42:47.083Z,20.92
2018-09-16T10:43:51.415Z,20.95
2018-09-16T10:44:55.627Z,20.99
2018-09-16T10:45:59.771Z,21.02
2018-09-16T10:47:03.934Z,21.08
2018-09-16T10:48:08.237Z,21.10
2018-09-16T10:49:12.446Z,21.14
2018-09-16T10:50:16.610Z,21.17
2018-09-16T10:51:20.802Z,21.23
2018-09-16T10:52:24.974Z,21.27
2018-09-16T10:53:29.650Z,21.31
2018-09-16T10:54:34.220Z,21.34
2018-09-16T10:55:38.495Z,21.38
2018-09-16T10:56:42.901Z,21.40
2018-09-16T10:57:47.028Z,21.43
2018-09-16T10:58:51.746Z,21.45
2018-09-16T10:59:56.146Z,21.46
2018-09-16T11:01:00.460Z,21.47
2018-09-16T11:02:04.638Z,21.48
2018-09-16T11:03:08.822Z,21.50
2018-09-16T11:04:13.067Z,21.51
2018-09-16T11:05:17.567Z,21.52
2018-09-16T11:06:21.718Z,21.54
2018-09-16T11:07:25.914Z,21.57
2018-09-16T11:08:30.132Z,21.59
2018-09-16T11:09:34.327Z,21.62
2018-09-16T11:10:38.768Z,21.64
2018-09-16T11:11:42.952Z,21.66
2018-09-16T11:12:47.218Z,21.69
2018-09-16T11:13:51.412Z,21.71
2018-09-16T11:14:55.648Z,21.74
2018-09-16T11:15:59.862Z,21.76
2018-09-16T11:17:04.326Z,21.79
2018-09-16T11:18:08.799Z,21.82
2018-09-16T11:19:12.949Z,21.86
2018-09-16T11:20:17.166Z,21.87
2018-09-16T11:21:21.302Z,21.89
2018-09-16T11:22:25.739Z,21.92
2018-09-16T11:23:29.954Z,21.93
2018-09-16T11:24:34.191Z,21.96
2018-09-16T11:25:38.386Z,21.99
2018-09-16T11:26:42.559Z,22.02
2018-09-16T11:27:46.756Z,22.04
2018-09-16T11:28:50.951Z,22.05
2018-09-16T11:29:57.370Z,22.07
2018-09-16T11:31:01.563Z,22.08
2018-09-16T11:32:06.277Z,22.07
2018-09-16T11:33:17.043Z,22.08
2018-09-16T11:34:21.213Z,22.08
2018-09-16T11:35:25.533Z,22.08
2018-09-16T11:36:29.653Z,22.08
2018-09-16T11:37:34.027Z,22.09
2018-09-16T11:38:38.178Z,22.11
2018-09-16T11:39:42.676Z,22.12
2018-09-16T11:40:46.968Z,22.14
2018-09-16T11:41:51.144Z,22.14
2018-09-16T11:42:55.348Z,22.15
2018-09-16T11:43:59.751Z,22.16
2018-09-16T11:45:03.982Z,22.17
2018-09-16T11:46:08.154Z,22.19
2018-09-16T11:47:12.522Z,22.19
2018-09-16T11:48:16.689Z,22.20
2018-09-16T11:49:20.870Z,22.22
2018-09-16T11:50:25.034Z,22.25
2018-09-16T11:51:29.372Z,22.29
2018-09-16T11:52:33.668Z,22.33
2018-09-16T11:53:38.162Z,22.37
2018-09-16T11:54:42.403Z,22.41
2018-09-16T11:55:46.664Z,22.45
2018-09-16T11:56:51.085Z,22.48
2018-09-16T11:57:55.381Z,22.51
2018-09-16T11:58:59.700Z,22.52
2018-09-16T12:00:03.934Z,22.52
2018-09-16T12:01:08.122Z,22.52
2018-09-16T12:02:12.365Z,22.52
2018-09-16T12:03:16.621Z,22.52
2018-09-16T12:04:20.774Z,22.51
2018-09-16T12:05:24.952Z,22.50
2018-09-16T12:06:29.111Z,22.50
2018-09-16T12:07:36.460Z,22.49
2018-09-16T12:08:40.734Z,22.47
2018-09-16T12:09:44.927Z,22.46
2018-09-16T12:10:49.101Z,22.44
2018-09-16T12:11:53.329Z,22.43
2018-09-16T12:12:57.533Z,22.43
2018-09-16T12:14:01.759Z,22.44
2018-09-16T12:15:06.107Z,22.46
2018-09-16T12:16:10.330Z,22.49
2018-09-16T12:17:14.527Z,22.51
2018-09-16T12:18:18.681Z,22.53
2018-09-16T12:19:23.381Z,22.56
2018-09-16T12:20:27.558Z,22.59
2018-09-16T12:21:31.797Z,22.59
2018-09-16T12:22:36.012Z,22.61
2018-09-16T12:23:40.320Z,22.63
2018-09-16T12:24:44.663Z,22.66
2018-09-16T12:25:48.811Z,22.66
2018-09-16T12:26:53.130Z,22.67
2018-09-16T12:27:57.314Z,22.68
2018-09-16T12:29:01.745Z,22.68
2018-09-16T12:30:06.143Z,22.69
2018-09-16T12:31:10.335Z,22.68
2018-09-16T12:32:14.511Z,22.70
2018-09-16T12:33:18.710Z,22.71
2018-09-16T12:34:22.975Z,22.72
2018-09-16T12:35:27.203Z,22.74
2018-09-16T12:36:31.700Z,22.78
2018-09-16T12:37:36.102Z,22.79
2018-09-16T12:38:40.337Z,22.82
2018-09-16T12:39:44.926Z,22.84
2018-09-16T12:40:49.201Z,22.86
2018-09-16T12:41:53.610Z,22.88
2018-09-16T12:42:57.948Z,22.91
2018-09-16T12:44:02.152Z,22.91
2018-09-16T12:45:06.593Z,22.92
2018-09-16T12:46:10.949Z,22.93
2018-09-16T12:47:15.130Z,22.95
2018-09-16T12:48:19.486Z,22.95
2018-09-16T12:49:23.670Z,22.96
2018-09-16T12:50:27.895Z,22.97
2018-09-16T12:51:32.060Z,22.97
2018-09-16T12:52:36.245Z,22.99
2018-09-16T12:53:40.433Z,22.99
2018-09-16T12:54:44.808Z,23.02
2018-09-16T12:55:48.975Z,23.02
2018-09-16T12:56:53.230Z,23.05
2018-09-16T12:57:57.371Z,23.07
2018-09-16T12:59:01.578Z,23.08
2018-09-16T13:00:05.790Z,23.09
2018-09-16T13:01:09.985Z,23.09
2018-09-16T13:02:14.215Z,23.11
2018-09-16T13:03:18.564Z,23.12
2018-09-16T13:04:22.766Z,23.14
2018-09-16T13:05:26.974Z,23.16
2018-09-16T13:06:31.254Z,23.17
2018-09-16T13:07:35.590Z,23.20
2018-09-16T13:08:39.920Z,23.20
2018-09-16T13:09:44.250Z,23.23
2018-09-16T13:10:48.440Z,23.23
2018-09-16T13:11:52.820Z,23.23
2018-09-16T13:12:57.330Z,23.24
2018-09-16T13:14:01.504Z,23.23
2018-09-16T13:15:05.800Z,23.24
2018-09-16T13:16:16.398Z,23.26
2018-09-16T13:17:20.596Z,23.29
2018-09-16T13:18:24.863Z,23.31
2018-09-16T13:19:29.231Z,23.33
2018-09-16T13:20:33.627Z,23.35
2018-09-16T13:21:37.766Z,23.38
2018-09-16T13:22:42.037Z,23.41
2018-09-16T13:23:46.398Z,23.41
2018-09-16T13:24:50.618Z,23.43
2018-09-16T13:25:54.791Z,23.44
2018-09-16T13:26:58.951Z,23.44
2018-09-16T13:29:06.257Z,23.47
2018-09-16T13:30:10.495Z,23.47
2018-09-16T13:32:17.766Z,23.47
2018-09-16T13:33:22.298Z,23.48
2018-09-16T13:34:26.520Z,23.47
2018-09-16T13:36:33.763Z,23.47
2018-09-16T13:37:37.968Z,23.47
2018-09-16T13:38:42.247Z,23.48
2018-09-16T13:39:46.879Z,23.48
2018-09-16T13:40:51.065Z,23.49
2018-09-16T13:41:55.250Z,23.49
2018-09-16T13:42:59.390Z,23.49
2018-09-16T13:44:03.580Z,23.50
2018-09-16T13:45:07.799Z,23.51
2018-09-16T13:46:12.020Z,23.52
2018-09-16T13:47:16.248Z,23.54
2018-09-16T13:48:20.509Z,23.54
2018-09-16T13:49:24.744Z,23.55
2018-09-16T13:50:28.986Z,23.56
2018-09-16T13:51:33.221Z,23.56
2018-09-16T13:52:37.724Z,23.56
2018-09-16T13:53:42.195Z,23.56